createdAt,value
2019-05-26T00:01:29.491Z,88.49
2019-05-26T00:03:56.924Z,88.43
2019-05-26T00:06:25.339Z,88.36
2019-05-26T00:08:52.666Z,88.72
2019-05-26T00:11:20.212Z,88.73
2019-05-26T00:13:47.510Z,88.97
2019-05-26T00:16:14.881Z,88.95
2019-05-26T00:18:42.413Z,88.84
2019-05-26T00:21:09.702Z,88.37
2019-05-26T00:23:37.069Z,88.37
2019-05-26T00:26:04.472Z,87.59
2019-05-26T00:28:31.891Z,87.77
2019-05-26T00:30:59.191Z,87.98
2019-05-26T00:33:26.512Z,88.19
2019-05-26T00:35:53.865Z,88.04
2019-05-26T00:38:21.253Z,88.20
2019-05-26T00:40:48.483Z,88.46
2019-05-26T00:43:16.091Z,88.40
2019-05-26T00:45:43.885Z,89.04
2019-05-26T00:48:11.197Z,89.09
2019-05-26T00:50:38.466Z,89.13
2019-05-26T00:53:05.851Z,89.04
2019-05-26T00:55:33.150Z,89.48
2019-05-26T00:58:00.686Z,89.25
2019-05-26T01:00:37.819Z,89.03
2019-05-26T01:03:05.448Z,89.48
2019-05-26T01:05:33.146Z,90.55
2019-05-26T01:08:06.372Z,91.24
2019-05-26T01:10:30.107Z,92.18
2019-05-26T01:12:58.690Z,91.41
2019-05-26T01:15:26.066Z,90.63
2019-05-26T01:17:53.362Z,90.09
2019-05-26T01:20:20.638Z,89.86
2019-05-26T01:22:47.907Z,89.85
2019-05-26T01:25:15.630Z,89.87
2019-05-26T01:27:42.918Z,89.22
2019-05-26T01:30:10.385Z,88.81
2019-05-26T01:32:37.738Z,88.67
2019-05-26T01:35:05.324Z,89.10
2019-05-26T01:37:32.801Z,89.46
2019-05-26T01:40:00.059Z,89.80
2019-05-26T01:42:28.044Z,89.56
2019-05-26T01:44:55.348Z,89.78
2019-05-26T01:47:22.629Z,89.79
2019-05-26T01:49:49.898Z,89.59
2019-05-26T01:52:17.183Z,89.98
2019-05-26T01:54:44.423Z,90.12
2019-05-26T01:57:11.743Z,90.25
2019-05-26T01:59:38.989Z,90.97
2019-05-26T02:02:06.304Z,91.15
2019-05-26T02:04:33.690Z,91.58
2019-05-26T02:07:00.936Z,92.42
2019-05-26T02:09:28.348Z,92.51
2019-05-26T02:11:55.631Z,92.61
2019-05-26T02:14:22.905Z,92.81
2019-05-26T02:16:50.231Z,92.61
2019-05-26T02:19:17.512Z,92.24
2019-05-26T02:21:45.829Z,92.23
2019-05-26T02:24:13.075Z,91.70
2019-05-26T02:26:40.323Z,91.03
2019-05-26T02:29:07.639Z,90.61
2019-05-26T02:31:34.962Z,90.21
2019-05-26T02:34:02.270Z,89.45
2019-05-26T02:36:29.532Z,89.21
2019-05-26T02:39:02.758Z,88.48
2019-05-26T02:41:25.978Z,88.54
2019-05-26T02:43:53.234Z,88.40
2019-05-26T02:46:20.731Z,88.08
2019-05-26T02:48:47.983Z,87.60
2019-05-26T02:51:15.236Z,87.30
2019-05-26T02:53:42.546Z,86.61
2019-05-26T02:56:10.068Z,86.64
2019-05-26T02:58:37.330Z,86.58
2019-05-26T03:01:04.550Z,86.15
2019-05-26T03:03:31.932Z,85.88
2019-05-26T03:05:59.407Z,85.72
2019-05-26T03:08:27.465Z,85.62
2019-05-26T03:10:57.030Z,85.45
2019-05-26T03:13:25.675Z,85.14
2019-05-26T03:15:54.765Z,85.05
2019-05-26T03:18:22.038Z,84.75
2019-05-26T03:20:49.446Z,84.77
2019-05-26T03:23:16.730Z,84.82
2019-05-26T03:25:43.972Z,84.91
2019-05-26T03:28:11.241Z,84.73
2019-05-26T03:30:38.511Z,84.67
2019-05-26T03:33:05.841Z,84.55
2019-05-26T03:35:33.158Z,84.57
2019-05-26T03:38:00.525Z,85.07
2019-05-26T03:40:27.808Z,84.77
2019-05-26T03:42:55.066Z,84.92
2019-05-26T03:45:24.807Z,84.56
2019-05-26T03:47:52.072Z,84.71
2019-05-26T03:50:19.367Z,84.80
2019-05-26T03:52:46.659Z,84.46
2019-05-26T03:55:13.912Z,84.29
2019-05-26T03:57:41.161Z,83.81
2019-05-26T04:00:08.446Z,83.60
2019-05-26T04:02:35.832Z,83.13
2019-05-26T04:05:03.826Z,83.03
2019-05-26T04:07:31.207Z,83.37
2019-05-26T04:10:05.223Z,83.33
2019-05-26T04:12:27.657Z,82.95
2019-05-26T04:14:54.879Z,82.82
2019-05-26T04:17:22.119Z,82.37
2019-05-26T04:19:49.382Z,82.21
2019-05-26T04:22:16.630Z,81.88
2019-05-26T04:24:43.883Z,81.36
2019-05-26T04:27:11.246Z,81.34
2019-05-26T04:29:39.506Z,81.00
2019-05-26T04:32:06.772Z,81.07
2019-05-26T04:34:34.058Z,80.79
2019-05-26T04:37:01.337Z,80.44
2019-05-26T04:39:28.723Z,80.73
2019-05-26T04:41:56.009Z,80.17
2019-05-26T04:44:24.278Z,79.78
2019-05-26T04:46:51.542Z,80.04
2019-05-26T04:49:18.794Z,80.01
2019-05-26T04:51:46.043Z,79.15
2019-05-26T04:54:13.339Z,79.08
2019-05-26T04:56:40.841Z,79.21
2019-05-26T04:59:09.336Z,78.87
2019-05-26T05:01:37.325Z,78.95
2019-05-26T05:04:04.613Z,78.06
2019-05-26T05:06:32.859Z,77.97
2019-05-26T05:09:00.559Z,76.57
2019-05-26T05:11:27.869Z,77.55
2019-05-26T05:13:55.210Z,76.50
2019-05-26T05:16:22.595Z,74.08
2019-05-26T05:18:49.934Z,75.73
2019-05-26T05:21:17.269Z,73.85
2019-05-26T05:23:44.530Z,73.62
2019-05-26T05:26:11.773Z,73.87
2019-05-26T05:28:39.043Z,73.74
2019-05-26T05:31:06.343Z,72.87
2019-05-26T05:33:33.651Z,73.68
2019-05-26T05:36:00.890Z,72.51
2019-05-26T05:38:28.228Z,71.10
2019-05-26T05:40:59.961Z,71.66
2019-05-26T05:43:25.741Z,71.27
2019-05-26T05:45:53.030Z,71.58
2019-05-26T05:48:20.323Z,73.07
2019-05-26T05:50:47.576Z,72.69
2019-05-26T05:53:14.835Z,74.00
2019-05-26T05:55:42.355Z,73.82
2019-05-26T05:58:09.808Z,72.97
2019-05-26T06:00:37.163Z,74.12
2019-05-26T06:03:04.416Z,73.25
2019-05-26T06:05:31.984Z,74.54
2019-05-26T06:07:59.406Z,72.78
2019-05-26T06:10:26.750Z,72.29
2019-05-26T06:12:54.188Z,72.43
2019-05-26T06:15:21.529Z,70.91
2019-05-26T06:17:48.944Z,70.92
2019-05-26T06:20:16.329Z,70.23
2019-05-26T06:22:43.591Z,70.34
2019-05-26T06:25:10.893Z,67.28
2019-05-26T06:27:38.254Z,69.24
2019-05-26T06:30:05.748Z,67.50
2019-05-26T06:32:33.011Z,68.28
2019-05-26T06:35:00.290Z,68.81
2019-05-26T06:37:27.570Z,67.87
2019-05-26T06:39:54.795Z,66.38
2019-05-26T06:42:22.072Z,66.07
2019-05-26T06:44:53.690Z,66.77
2019-05-26T06:47:18.466Z,66.45
2019-05-26T06:49:45.794Z,64.18
2019-05-26T06:52:13.100Z,62.74
2019-05-26T06:54:40.368Z,63.50
2019-05-26T06:57:07.901Z,63.97
2019-05-26T06:59:35.165Z,62.46
2019-05-26T07:02:02.427Z,61.82
2019-05-26T07:04:29.688Z,66.74
2019-05-26T07:06:56.937Z,63.53
2019-05-26T07:09:24.293Z,60.95
2019-05-26T07:11:59.071Z,59.89
2019-05-26T07:14:20.718Z,59.80
2019-05-26T07:16:47.978Z,60.42
2019-05-26T07:19:15.217Z,59.81
2019-05-26T07:21:42.536Z,61.95
2019-05-26T07:24:09.809Z,61.99
2019-05-26T07:26:38.073Z,59.51
2019-05-26T07:29:05.328Z,61.15
2019-05-26T07:31:32.636Z,62.34
2019-05-26T07:33:59.877Z,62.18
2019-05-26T07:36:27.171Z,60.65
2019-05-26T07:38:54.435Z,59.77
2019-05-26T07:41:21.728Z,59.95
2019-05-26T07:43:49.013Z,60.72
2019-05-26T07:46:16.287Z,59.52
2019-05-26T07:48:43.565Z,60.76
2019-05-26T07:51:11.034Z,59.44
2019-05-26T07:53:38.310Z,61.92
2019-05-26T07:56:05.899Z,60.49
2019-05-26T07:58:33.272Z,59.80
2019-05-26T08:01:00.535Z,61.13
2019-05-26T08:03:27.809Z,60.37
2019-05-26T08:05:55.672Z,61.56
2019-05-26T08:08:23.054Z,63.41
2019-05-26T08:10:50.430Z,63.93
2019-05-26T08:13:26.450Z,63.71
2019-05-26T08:15:53.945Z,61.74
2019-05-26T08:18:29.302Z,60.03
2019-05-26T08:20:56.719Z,60.41
2019-05-26T08:23:24.069Z,60.31
2019-05-26T08:25:51.475Z,58.81
2019-05-26T08:28:18.918Z,61.97
2019-05-26T08:30:46.323Z,58.65
2019-05-26T08:33:13.677Z,57.42
2019-05-26T08:35:41.138Z,54.57
2019-05-26T08:38:08.721Z,56.46
2019-05-26T08:40:36.161Z,56.68
2019-05-26T08:43:03.766Z,57.78
2019-05-26T08:45:31.042Z,57.05
2019-05-26T08:48:00.500Z,55.08
2019-05-26T08:50:27.835Z,53.13
2019-05-26T08:52:55.254Z,53.00
2019-05-26T08:55:22.623Z,54.88
2019-05-26T08:57:49.979Z,54.89
2019-05-26T09:00:17.557Z,52.00
2019-05-26T09:02:44.853Z,50.60
2019-05-26T09:05:13.582Z,51.36
2019-05-26T09:07:41.412Z,48.33
2019-05-26T09:10:09.325Z,47.55
2019-05-26T09:12:36.774Z,47.36
2019-05-26T09:15:05.802Z,50.51
2019-05-26T09:17:33.240Z,52.63
2019-05-26T09:20:00.527Z,48.39
2019-05-26T09:22:27.766Z,52.62
2019-05-26T09:24:55.079Z,51.73
2019-05-26T09:27:22.314Z,51.47
2019-05-26T09:29:49.721Z,50.80
2019-05-26T09:32:17.247Z,48.92
2019-05-26T09:34:44.856Z,48.82
2019-05-26T09:37:12.181Z,49.61
2019-05-26T09:39:39.545Z,53.74
2019-05-26T09:42:06.852Z,50.36
2019-05-26T09:44:34.144Z,50.56
2019-05-26T09:47:02.605Z,50.58
2019-05-26T09:49:29.977Z,51.61
2019-05-26T09:51:58.347Z,52.19
2019-05-26T09:54:25.608Z,52.84
2019-05-26T09:56:52.854Z,53.06
2019-05-26T09:59:20.112Z,52.05
2019-05-26T10:01:47.423Z,50.33
2019-05-26T10:04:15.693Z,50.98
2019-05-26T10:06:43.116Z,50.12
2019-05-26T10:09:10.372Z,51.00
2019-05-26T10:11:37.715Z,50.99
2019-05-26T10:14:05.099Z,49.95
2019-05-26T10:16:32.444Z,49.12
2019-05-26T10:18:59.824Z,46.46
2019-05-26T10:21:27.075Z,50.16
2019-05-26T10:23:54.406Z,50.32
2019-05-26T10:26:21.755Z,47.22
2019-05-26T10:28:49.035Z,48.30
2019-05-26T10:31:16.286Z,45.08
2019-05-26T10:33:43.583Z,46.94
2019-05-26T10:36:10.862Z,45.98
2019-05-26T10:38:38.078Z,48.39
2019-05-26T10:41:05.456Z,44.98
2019-05-26T10:43:46.416Z,45.27
2019-05-26T10:46:03.026Z,47.30
2019-05-26T10:48:30.305Z,46.89
2019-05-26T10:50:57.593Z,47.14
2019-05-26T10:53:24.894Z,46.96
2019-05-26T10:55:52.161Z,47.13
2019-05-26T10:58:19.676Z,44.13
2019-05-26T11:00:48.304Z,46.67
2019-05-26T11:03:16.945Z,46.54
2019-05-26T11:05:46.134Z,44.56
2019-05-26T11:08:16.539Z,44.52
2019-05-26T11:10:44.237Z,45.31
2019-05-26T11:13:11.807Z,47.72
2019-05-26T11:15:39.224Z,45.91
2019-05-26T11:18:06.597Z,44.66
2019-05-26T11:20:33.843Z,44.25
2019-05-26T11:23:01.111Z,45.17
2019-05-26T11:25:28.468Z,39.98
2019-05-26T11:27:55.722Z,43.83
2019-05-26T11:30:23.097Z,41.30
2019-05-26T11:32:50.384Z,39.85
2019-05-26T11:35:19.458Z,41.76
2019-05-26T11:37:46.760Z,41.99
2019-05-26T11:40:15.675Z,40.51
2019-05-26T11:42:45.068Z,40.77
2019-05-26T11:45:12.370Z,43.13
2019-05-26T11:47:39.654Z,40.39
2019-05-26T11:50:07.291Z,43.44
2019-05-26T11:52:34.541Z,45.20
2019-05-26T11:55:01.909Z,46.67
2019-05-26T11:57:29.404Z,43.46
2019-05-26T11:59:56.851Z,42.49
2019-05-26T12:02:26.288Z,43.87
2019-05-26T12:04:56.824Z,42.27
2019-05-26T12:07:26.610Z,39.23
2019-05-26T12:09:57.318Z,39.62
2019-05-26T12:12:24.983Z,41.71
2019-05-26T12:14:52.304Z,43.09
2019-05-26T12:17:19.792Z,39.26
2019-05-26T12:19:47.053Z,41.07
2019-05-26T12:22:14.334Z,40.03
2019-05-26T12:24:41.674Z,40.88
2019-05-26T12:27:08.962Z,42.23
2019-05-26T12:29:36.682Z,41.47
2019-05-26T12:32:05.063Z,39.95
2019-05-26T12:34:32.342Z,40.78
2019-05-26T12:36:59.593Z,40.55
2019-05-26T12:39:26.838Z,40.91
2019-05-26T12:41:54.196Z,37.62
2019-05-26T12:44:22.047Z,37.78
2019-05-26T12:46:49.719Z,37.54
2019-05-26T12:49:17.079Z,39.98
2019-05-26T12:51:44.410Z,41.00
2019-05-26T12:54:11.662Z,40.58
2019-05-26T12:56:38.909Z,36.23
2019-05-26T12:59:06.163Z,34.44
2019-05-26T13:01:33.474Z,34.44
2019-05-26T13:04:00.719Z,34.54
2019-05-26T13:06:28.112Z,38.46
2019-05-26T13:08:55.559Z,37.75
2019-05-26T13:11:23.030Z,36.64
2019-05-26T13:13:50.270Z,35.23
2019-05-26T13:16:17.551Z,40.30
2019-05-26T13:18:44.784Z,36.72
2019-05-26T13:21:12.419Z,36.72
2019-05-26T13:23:39.797Z,35.27
2019-05-26T13:26:07.157Z,37.26
2019-05-26T13:28:34.519Z,35.21
2019-05-26T13:31:01.990Z,37.44
2019-05-26T13:33:29.250Z,35.28
2019-05-26T13:35:57.796Z,35.75
2019-05-26T13:38:25.243Z,39.22
2019-05-26T13:40:52.542Z,36.76
2019-05-26T13:43:19.804Z,37.11
2019-05-26T13:45:47.172Z,39.12
2019-05-26T13:48:14.679Z,39.12
2019-05-26T13:50:41.990Z,38.12
2019-05-26T13:53:09.237Z,39.12
2019-05-26T13:55:36.976Z,38.80
2019-05-26T13:58:04.501Z,39.22
2019-05-26T14:00:31.934Z,38.30
2019-05-26T14:02:59.170Z,39.10
2019-05-26T14:05:26.448Z,40.29
2019-05-26T14:07:54.093Z,42.45
2019-05-26T14:10:34.660Z,40.50
2019-05-26T14:13:01.895Z,41.15
2019-05-26T14:15:38.198Z,41.77
2019-05-26T14:17:59.703Z,37.72
2019-05-26T14:20:35.666Z,37.72
2019-05-26T14:23:03.154Z,38.09
2019-05-26T14:25:30.383Z,38.63
2019-05-26T14:27:57.652Z,40.57
2019-05-26T14:30:24.905Z,39.50
2019-05-26T14:32:52.278Z,39.74
2019-05-26T14:35:19.501Z,40.59
2019-05-26T14:38:04.190Z,42.92
2019-05-26T14:40:41.442Z,42.75
2019-05-26T14:43:28.884Z,46.03
2019-05-26T14:46:15.576Z,42.83
2019-05-26T14:48:56.963Z,45.99
2019-05-26T14:51:58.757Z,43.01
2019-05-26T14:54:45.101Z,42.91
2019-05-26T14:57:15.234Z,43.77
2019-05-26T14:59:45.465Z,40.19
2019-05-26T15:02:13.317Z,43.24
2019-05-26T15:04:41.190Z,42.62
2019-05-26T15:07:08.597Z,42.62
2019-05-26T15:09:41.398Z,43.22
2019-05-26T15:12:23.596Z,46.39
2019-05-26T15:14:59.342Z,44.82
2019-05-26T15:17:39.786Z,46.32
2019-05-26T15:20:24.138Z,47.46
2019-05-26T15:22:55.261Z,45.46
2019-05-26T15:25:29.397Z,48.50
2019-05-26T15:28:01.715Z,48.20
2019-05-26T15:30:36.451Z,49.53
2019-05-26T15:33:18.051Z,52.09
2019-05-26T15:35:56.610Z,51.18
2019-05-26T15:38:57.762Z,51.92
2019-05-26T15:41:47.298Z,52.12
2019-05-26T15:44:23.924Z,52.52
2019-05-26T15:47:00.050Z,53.61
2019-05-26T15:49:31.397Z,53.93
2019-05-26T15:52:07.892Z,54.02
2019-05-26T15:54:38.036Z,53.54
2019-05-26T15:57:11.421Z,53.66
2019-05-26T16:00:07.434Z,52.27
2019-05-26T16:03:00.614Z,54.16
2019-05-26T16:05:32.967Z,53.15
2019-05-26T16:08:12.604Z,52.04
2019-05-26T16:10:50.472Z,50.05
2019-05-26T16:13:30.046Z,49.62
2019-05-26T16:16:10.323Z,49.67
2019-05-26T16:18:51.878Z,49.46
2019-05-26T16:21:38.101Z,50.82
2019-05-26T16:24:20.596Z,51.09
2019-05-26T16:27:00.282Z,51.99
2019-05-26T16:29:40.588Z,52.19
2019-05-26T16:32:13.594Z,51.32
2019-05-26T16:34:48.937Z,51.52
2019-05-26T16:37:22.192Z,52.30
2019-05-26T16:40:20.438Z,51.91
2019-05-26T16:43:04.537Z,53.85
2019-05-26T16:45:55.320Z,52.32
2019-05-26T16:48:18.156Z,53.78
2019-05-26T16:50:57.201Z,53.09
2019-05-26T16:53:37.052Z,52.48
2019-05-26T16:56:11.899Z,53.99
2019-05-26T16:58:47.966Z,51.67
2019-05-26T17:01:25.654Z,51.68
2019-05-26T17:03:57.488Z,51.52
2019-05-26T17:06:48.063Z,53.28
2019-05-26T17:09:21.018Z,53.28
2019-05-26T17:11:56.754Z,51.63
2019-05-26T17:14:38.278Z,50.87
2019-05-26T17:17:14.657Z,50.85
2019-05-26T17:19:44.394Z,51.71
2019-05-26T17:22:18.266Z,53.00
2019-05-26T17:24:49.577Z,51.86
2019-05-26T17:27:24.300Z,54.52
2019-05-26T17:30:02.438Z,54.45
2019-05-26T17:32:47.273Z,53.68
2019-05-26T17:35:22.232Z,54.56
2019-05-26T17:38:16.591Z,56.64
2019-05-26T17:40:57.361Z,54.71
2019-05-26T17:43:36.329Z,56.21
2019-05-26T17:46:15.190Z,55.98
2019-05-26T17:48:49.600Z,55.46
2019-05-26T17:51:26.902Z,56.73
2019-05-26T17:54:02.537Z,55.89
2019-05-26T17:56:33.326Z,57.13
2019-05-26T18:02:16.538Z,57.01
2019-05-26T18:04:48.310Z,56.94
2019-05-26T18:07:30.305Z,57.08
2019-05-26T18:10:04.661Z,57.67
2019-05-26T18:12:39.258Z,57.66
2019-05-26T18:15:13.606Z,57.29
2019-05-26T18:17:49.962Z,57.61
2019-05-26T18:20:21.292Z,58.96
2019-05-26T18:22:52.075Z,57.11
2019-05-26T18:25:21.352Z,57.81
2019-05-26T18:27:51.078Z,57.56
2019-05-26T18:30:20.471Z,58.09
2019-05-26T18:32:51.300Z,58.74
2019-05-26T18:35:18.907Z,58.96
2019-05-26T18:37:46.179Z,58.18
2019-05-26T18:40:13.510Z,59.39
2019-05-26T18:42:40.860Z,59.13
2019-05-26T18:45:08.255Z,58.72
2019-05-26T18:47:35.529Z,59.90
2019-05-26T18:50:02.872Z,59.81
2019-05-26T18:52:30.285Z,59.11
2019-05-26T18:54:57.552Z,59.36
2019-05-26T18:57:25.039Z,61.26
2019-05-26T18:59:52.280Z,60.17
2019-05-26T19:02:19.567Z,59.38
2019-05-26T19:04:46.860Z,60.76
2019-05-26T19:07:14.118Z,60.35
2019-05-26T19:09:41.395Z,61.48
2019-05-26T19:12:08.856Z,60.97
2019-05-26T19:14:36.354Z,62.81
2019-05-26T19:17:03.732Z,62.22
2019-05-26T19:19:30.983Z,62.41
2019-05-26T19:21:58.285Z,62.68
2019-05-26T19:24:25.601Z,62.88
2019-05-26T19:26:52.935Z,63.63
2019-05-26T19:29:20.227Z,64.51
2019-05-26T19:31:47.730Z,65.67
2019-05-26T19:34:15.191Z,65.15
2019-05-26T19:36:42.566Z,65.64
2019-05-26T19:39:10.708Z,65.25
2019-05-26T19:41:39.478Z,66.38
2019-05-26T19:44:07.748Z,66.24
2019-05-26T19:46:35.069Z,65.87
2019-05-26T19:49:02.353Z,67.38
2019-05-26T19:51:29.602Z,66.42
2019-05-26T19:53:56.895Z,66.77
2019-05-26T19:56:25.281Z,66.20
2019-05-26T19:58:52.675Z,67.40
2019-05-26T20:01:19.952Z,66.25
2019-05-26T20:03:48.372Z,66.20
2019-05-26T20:06:16.812Z,66.15
2019-05-26T20:08:44.198Z,66.07
2019-05-26T20:11:11.506Z,66.11
2019-05-26T20:13:38.844Z,66.13
2019-05-26T20:16:06.227Z,65.53
2019-05-26T20:18:33.792Z,65.63
2019-05-26T20:21:02.210Z,65.70
2019-05-26T20:23:29.441Z,65.96
2019-05-26T20:25:56.769Z,66.13
2019-05-26T20:28:24.113Z,65.31
2019-05-26T20:30:51.349Z,65.92
2019-05-26T20:33:18.654Z,65.16
2019-05-26T20:35:46.058Z,65.93
2019-05-26T20:38:13.321Z,65.41
2019-05-26T20:40:41.563Z,65.73
2019-05-26T20:43:08.847Z,65.78
2019-05-26T20:45:36.212Z,66.13
2019-05-26T20:48:03.480Z,66.53
2019-05-26T20:50:30.808Z,65.73
2019-05-26T20:52:58.250Z,65.72
2019-05-26T20:55:26.589Z,65.95
2019-05-26T20:57:54.060Z,65.33
2019-05-26T21:00:21.374Z,65.93
2019-05-26T21:02:48.946Z,66.60
2019-05-26T21:05:16.735Z,66.22
2019-05-26T21:07:44.237Z,66.51
2019-05-26T21:10:12.670Z,67.10
2019-05-26T21:12:40.532Z,66.85
2019-05-26T21:15:08.808Z,66.89
2019-05-26T21:17:36.328Z,68.00
2019-05-26T21:20:04.622Z,66.93
2019-05-26T21:22:32.205Z,66.96
2019-05-26T21:25:00.185Z,67.46
2019-05-26T21:27:27.509Z,67.18
2019-05-26T21:29:54.799Z,68.00
2019-05-26T21:32:22.207Z,68.20
2019-05-26T21:34:49.473Z,68.16
2019-05-26T21:37:16.739Z,70.12
2019-05-26T21:39:44.007Z,69.82
2019-05-26T21:42:11.225Z,69.46
2019-05-26T21:44:38.461Z,69.80
2019-05-26T21:47:05.762Z,70.55
2019-05-26T21:49:33.401Z,70.66
2019-05-26T21:52:00.676Z,70.50
2019-05-26T21:54:28.000Z,70.57
2019-05-26T21:56:55.304Z,71.32
2019-05-26T21:59:22.564Z,71.32
2019-05-26T22:01:49.837Z,71.08
2019-05-26T22:04:17.101Z,71.36
2019-05-26T22:06:46.055Z,70.24
2019-05-26T22:09:13.305Z,69.96
2019-05-26T22:11:40.893Z,70.12
2019-05-26T22:14:08.129Z,70.89
2019-05-26T22:16:36.048Z,70.34
2019-05-26T22:19:03.301Z,70.37
2019-05-26T22:21:30.542Z,70.88
2019-05-26T22:23:57.827Z,70.33
2019-05-26T22:26:25.054Z,70.19
2019-05-26T22:28:52.370Z,70.58
2019-05-26T22:31:19.648Z,70.39
2019-05-26T22:33:47.085Z,70.43
2019-05-26T22:36:14.309Z,70.23
2019-05-26T22:38:41.612Z,70.35
2019-05-26T22:41:08.908Z,70.56
2019-05-26T22:43:37.563Z,70.74
2019-05-26T22:46:04.784Z,69.71
2019-05-26T22:48:32.063Z,69.81
2019-05-26T22:50:59.319Z,70.14
2019-05-26T22:53:26.572Z,70.64
2019-05-26T22:55:53.854Z,69.89
2019-05-26T22:58:21.090Z,71.07
2019-05-26T23:00:48.625Z,70.27
2019-05-26T23:03:16.810Z,70.65
2019-05-26T23:05:44.540Z,70.25
2019-05-26T23:08:11.904Z,70.62
2019-05-26T23:10:39.160Z,70.37
2019-05-26T23:13:06.381Z,71.06
2019-05-26T23:15:33.672Z,70.62
2019-05-26T23:18:00.900Z,70.50
2019-05-26T23:20:28.181Z,70.76
2019-05-26T23:22:55.454Z,71.50
2019-05-26T23:25:22.669Z,71.60
2019-05-26T23:27:49.984Z,71.90
2019-05-26T23:30:17.261Z,71.81
2019-05-26T23:32:44.603Z,71.75
2019-05-26T23:35:13.842Z,72.06
2019-05-26T23:37:41.214Z,72.59
2019-05-26T23:40:08.534Z,72.61
2019-05-26T23:42:35.936Z,72.44
2019-05-26T23:45:04.723Z,72.22
2019-05-26T23:47:32.213Z,72.28
2019-05-26T23:49:59.619Z,72.43
2019-05-26T23:52:28.059Z,71.62
2019-05-26T23:54:55.454Z,71.91
2019-05-26T23:57:22.747Z,71.81
2019-05-26T23:59:50.063Z,72.75
